sensor_id;sensor_type;location;lat;lon;timestamp;temperature;humidity
56725;DHT22;42608;52.776;6.968;2024-01-16T00:01:22;0.20;99.90
56725;DHT22;42608;52.776;6.968;2024-01-16T00:03:48;0.10;99.90
56725;DHT22;42608;52.776;6.968;2024-01-16T00:06:13;0.20;99.90
56725;DHT22;42608;52.776;6.968;2024-01-16T00:08:39;0.20;99.90
56725;DHT22;42608;52.776;6.968;2024-01-16T00:11:05;0.20;99.90
56725;DHT22;42608;52.776;6.968;2024-01-16T00:13:31;0.20;99.90
56725;DHT22;42608;52.776;6.968;2024-01-16T00:15:57;0.10;99.90
56725;DHT22;42608;52.776;6.968;2024-01-16T00:18:23;0.10;99.90
56725;DHT22;42608;52.776;6.968;2024-01-16T00:20:48;0.10;99.90
56725;DHT22;42608;52.776;6.968;2024-01-16T00:23:14;0.10;99.90
56725;DHT22;42608;52.776;6.968;2024-01-16T00:25:40;0.10;99.90
56725;DHT22;42608;52.776;6.968;2024-01-16T00:28:06;0.10;99.90
56725;DHT22;42608;52.776;6.968;2024-01-16T00:30:32;0.00;99.90
56725;DHT22;42608;52.776;6.968;2024-01-16T00:33:02;0.00;99.90
56725;DHT22;42608;52.776;6.968;2024-01-16T00:35:28;0.00;99.90
56725;DHT22;42608;52.776;6.968;2024-01-16T00:37:53;0.00;99.90
56725;DHT22;42608;52.776;6.968;2024-01-16T00:40:19;0.00;99.90
56725;DHT22;42608;52.776;6.968;2024-01-16T00:42:44;0.00;99.90
56725;DHT22;42608;52.776;6.968;2024-01-16T00:45:10;0.00;99.90
56725;DHT22;42608;52.776;6.968;2024-01-16T00:47:35;0.00;99.90
56725;DHT22;42608;52.776;6.968;2024-01-16T00:50:01;0.00;99.90
56725;DHT22;42608;52.776;6.968;2024-01-16T00:52:30;0.00;99.90
56725;DHT22;42608;52.776;6.968;2024-01-16T00:54:55;-0.10;99.90
56725;DHT22;42608;52.776;6.968;2024-01-16T00:57:21;-0.10;99.90
56725;DHT22;42608;52.776;6.968;2024-01-16T00:59:47;-0.10;99.90
56725;DHT22;42608;52.776;6.968;2024-01-16T01:02:12;0.00;99.90
56725;DHT22;42608;52.776;6.968;2024-01-16T01:04:38;-0.10;99.90
56725;DHT22;42608;52.776;6.968;2024-01-16T01:07:04;-0.10;99.90
56725;DHT22;42608;52.776;6.968;2024-01-16T01:09:32;-0.10;99.90
56725;DHT22;42608;52.776;6.968;2024-01-16T01:11:57;-0.10;99.90
56725;DHT22;42608;52.776;6.968;2024-01-16T01:14:23;-0.10;99.90
56725;DHT22;42608;52.776;6.968;2024-01-16T01:16:51;-0.10;99.90
56725;DHT22;42608;52.776;6.968;2024-01-16T01:19:16;-0.10;99.90
56725;DHT22;42608;52.776;6.968;2024-01-16T01:21:42;-0.20;99.90
56725;DHT22;42608;52.776;6.968;2024-01-16T01:24:07;-0.20;99.90
56725;DHT22;42608;52.776;6.968;2024-01-16T01:26:34;-0.20;99.90
56725;DHT22;42608;52.776;6.968;2024-01-16T01:29:02;-0.20;99.90
56725;DHT22;42608;52.776;6.968;2024-01-16T01:31:28;-0.20;99.90
56725;DHT22;42608;52.776;6.968;2024-01-16T01:33:56;-0.20;99.90
56725;DHT22;42608;52.776;6.968;2024-01-16T01:36:22;-0.20;99.90
56725;DHT22;42608;52.776;6.968;2024-01-16T01:38:48;-0.20;99.90
56725;DHT22;42608;52.776;6.968;2024-01-16T01:41:13;-0.20;99.90
56725;DHT22;42608;52.776;6.968;2024-01-16T01:43:39;-0.20;99.90
56725;DHT22;42608;52.776;6.968;2024-01-16T01:48:37;-0.20;99.90
56725;DHT22;42608;52.776;6.968;2024-01-16T01:51:06;-0.20;99.90
56725;DHT22;42608;52.776;6.968;2024-01-16T01:53:32;-0.20;99.90
56725;DHT22;42608;52.776;6.968;2024-01-16T01:55:58;-0.20;99.90
56725;DHT22;42608;52.776;6.968;2024-01-16T01:58:24;-0.20;99.90
56725;DHT22;42608;52.776;6.968;2024-01-16T02:00:50;-0.20;99.90
56725;DHT22;42608;52.776;6.968;2024-01-16T02:03:15;-0.10;99.90
56725;DHT22;42608;52.776;6.968;2024-01-16T02:05:41;-0.10;99.90
56725;DHT22;42608;52.776;6.968;2024-01-16T02:08:07;-0.10;99.90
56725;DHT22;42608;52.776;6.968;2024-01-16T02:10:34;-0.10;99.90
56725;DHT22;42608;52.776;6.968;2024-01-16T02:13:00;-0.10;99.90
56725;DHT22;42608;52.776;6.968;2024-01-16T02:15:25;-0.10;99.90
56725;DHT22;42608;52.776;6.968;2024-01-16T02:17:51;-0.10;99.90
56725;DHT22;42608;52.776;6.968;2024-01-16T02:20:17;-0.10;99.90
56725;DHT22;42608;52.776;6.968;2024-01-16T02:22:43;-0.10;99.90
56725;DHT22;42608;52.776;6.968;2024-01-16T02:25:14;-0.20;99.90
56725;DHT22;42608;52.776;6.968;2024-01-16T02:27:40;-0.20;99.90
56725;DHT22;42608;52.776;6.968;2024-01-16T02:30:05;-0.30;99.90
56725;DHT22;42608;52.776;6.968;2024-01-16T02:32:31;-0.30;99.90
56725;DHT22;42608;52.776;6.968;2024-01-16T02:34:57;-0.30;99.90
56725;DHT22;42608;52.776;6.968;2024-01-16T02:37:23;-0.40;99.90
56725;DHT22;42608;52.776;6.968;2024-01-16T02:39:49;-0.40;99.90
56725;DHT22;42608;52.776;6.968;2024-01-16T02:42:17;-0.40;99.90
56725;DHT22;42608;52.776;6.968;2024-01-16T02:44:43;-0.40;99.90
56725;DHT22;42608;52.776;6.968;2024-01-16T02:47:09;-0.40;99.90
56725;DHT22;42608;52.776;6.968;2024-01-16T02:49:34;-0.50;99.90
56725;DHT22;42608;52.776;6.968;2024-01-16T02:52:02;-0.50;99.90
56725;DHT22;42608;52.776;6.968;2024-01-16T02:54:27;-0.50;99.90
56725;DHT22;42608;52.776;6.968;2024-01-16T02:56:53;-0.50;99.90
56725;DHT22;42608;52.776;6.968;2024-01-16T02:59:18;-0.50;99.90
56725;DHT22;42608;52.776;6.968;2024-01-16T03:01:44;-0.50;99.90
56725;DHT22;42608;52.776;6.968;2024-01-16T03:04:09;-0.50;99.90
56725;DHT22;42608;52.776;6.968;2024-01-16T03:06:35;-0.40;99.90
56725;DHT22;42608;52.776;6.968;2024-01-16T03:09:01;-0.40;99.90
56725;DHT22;42608;52.776;6.968;2024-01-16T03:11:26;-0.40;99.90
56725;DHT22;42608;52.776;6.968;2024-01-16T03:13:52;-0.30;99.90
56725;DHT22;42608;52.776;6.968;2024-01-16T03:16:18;-0.30;99.90
56725;DHT22;42608;52.776;6.968;2024-01-16T03:18:44;-0.30;99.90
56725;DHT22;42608;52.776;6.968;2024-01-16T03:21:10;-0.30;99.90
56725;DHT22;42608;52.776;6.968;2024-01-16T03:23:36;-0.30;99.90
56725;DHT22;42608;52.776;6.968;2024-01-16T03:26:01;-0.30;99.90
56725;DHT22;42608;52.776;6.968;2024-01-16T03:28:27;-0.30;99.90
56725;DHT22;42608;52.776;6.968;2024-01-16T03:30:52;-0.30;99.90
56725;DHT22;42608;52.776;6.968;2024-01-16T03:33:19;-0.40;99.90
56725;DHT22;42608;52.776;6.968;2024-01-16T03:35:45;-0.40;99.90
56725;DHT22;42608;52.776;6.968;2024-01-16T03:38:11;-0.40;99.90
56725;DHT22;42608;52.776;6.968;2024-01-16T03:40:36;-0.40;99.90
56725;DHT22;42608;52.776;6.968;2024-01-16T03:43:02;-0.40;99.90
56725;DHT22;42608;52.776;6.968;2024-01-16T03:45:27;-0.40;99.90
56725;DHT22;42608;52.776;6.968;2024-01-16T03:47:53;-0.40;99.90
56725;DHT22;42608;52.776;6.968;2024-01-16T03:50:18;-0.40;99.90
56725;DHT22;42608;52.776;6.968;2024-01-16T03:52:44;-0.40;99.90
56725;DHT22;42608;52.776;6.968;2024-01-16T03:55:09;-0.40;99.90
56725;DHT22;42608;52.776;6.968;2024-01-16T03:57:35;-0.40;99.90
56725;DHT22;42608;52.776;6.968;2024-01-16T04:00:01;-0.40;99.90
56725;DHT22;42608;52.776;6.968;2024-01-16T04:02:26;-0.40;99.90
56725;DHT22;42608;52.776;6.968;2024-01-16T04:04:52;-0.40;99.90
56725;DHT22;42608;52.776;6.968;2024-01-16T04:07:17;-0.40;99.90
56725;DHT22;42608;52.776;6.968;2024-01-16T04:09:43;-0.40;99.90
56725;DHT22;42608;52.776;6.968;2024-01-16T04:12:09;-0.40;99.90
56725;DHT22;42608;52.776;6.968;2024-01-16T04:14:34;-0.40;99.90
56725;DHT22;42608;52.776;6.968;2024-01-16T04:17:01;-0.40;99.90
56725;DHT22;42608;52.776;6.968;2024-01-16T04:19:27;-0.40;99.90
56725;DHT22;42608;52.776;6.968;2024-01-16T04:21:53;-0.40;99.90
56725;DHT22;42608;52.776;6.968;2024-01-16T04:24:21;-0.40;99.90
56725;DHT22;42608;52.776;6.968;2024-01-16T04:26:47;-0.40;99.90
56725;DHT22;42608;52.776;6.968;2024-01-16T04:29:15;-0.40;99.90
56725;DHT22;42608;52.776;6.968;2024-01-16T04:31:41;-0.40;99.90
56725;DHT22;42608;52.776;6.968;2024-01-16T04:34:07;-0.40;99.90
56725;DHT22;42608;52.776;6.968;2024-01-16T04:36:32;-0.40;99.90
56725;DHT22;42608;52.776;6.968;2024-01-16T04:38:58;-0.40;99.90
56725;DHT22;42608;52.776;6.968;2024-01-16T04:41:23;-0.40;99.90
56725;DHT22;42608;52.776;6.968;2024-01-16T04:43:49;-0.40;99.90
56725;DHT22;42608;52.776;6.968;2024-01-16T04:46:15;-0.40;99.90
56725;DHT22;42608;52.776;6.968;2024-01-16T04:48:41;-0.40;99.90
56725;DHT22;42608;52.776;6.968;2024-01-16T04:51:07;-0.40;99.90
56725;DHT22;42608;52.776;6.968;2024-01-16T04:53:33;-0.40;99.90
56725;DHT22;42608;52.776;6.968;2024-01-16T04:55:58;-0.40;99.90
56725;DHT22;42608;52.776;6.968;2024-01-16T04:58:24;-0.40;99.90
56725;DHT22;42608;52.776;6.968;2024-01-16T05:00:49;-0.40;99.90
56725;DHT22;42608;52.776;6.968;2024-01-16T05:03:15;-0.40;99.90
56725;DHT22;42608;52.776;6.968;2024-01-16T05:05:40;-0.40;99.90
56725;DHT22;42608;52.776;6.968;2024-01-16T05:08:07;-0.40;99.90
56725;DHT22;42608;52.776;6.968;2024-01-16T05:10:33;-0.40;99.90
56725;DHT22;42608;52.776;6.968;2024-01-16T05:13:02;-0.40;99.90
56725;DHT22;42608;52.776;6.968;2024-01-16T05:15:27;-0.40;99.90
